createdAt,value
2019-06-01T00:01:32.668Z,9.23
2019-06-01T00:03:40.260Z,9.73
2019-06-01T00:05:49.395Z,9.47
2019-06-01T00:07:58.128Z,11.03
2019-06-01T00:10:06.732Z,10.17
2019-06-01T00:12:13.408Z,10.00
2019-06-01T00:14:19.915Z,10.00
2019-06-01T00:16:27.832Z,9.30
2019-06-01T00:18:35.875Z,9.90
2019-06-01T00:20:44.329Z,9.30
2019-06-01T00:22:53.860Z,8.80
2019-06-01T00:25:02.812Z,9.47
2019-06-01T00:27:11.638Z,10.23
2019-06-01T00:29:20.984Z,9.90
2019-06-01T00:31:27.771Z,10.27
2019-06-01T00:33:35.614Z,9.20
2019-06-01T00:35:43.725Z,9.50
2019-06-01T00:37:51.905Z,9.10
2019-06-01T00:39:59.921Z,9.80
2019-06-01T00:42:06.553Z,10.33
2019-06-01T00:44:13.486Z,9.73
2019-06-01T00:46:20.023Z,9.93
2019-06-01T00:48:27.147Z,10.03
2019-06-01T00:50:33.680Z,9.83
2019-06-01T00:52:40.317Z,10.67
2019-06-01T00:54:49.394Z,9.10
2019-06-01T00:57:02.229Z,10.33
2019-06-01T00:59:10.867Z,10.13
2019-06-01T01:01:17.238Z,9.70
2019-06-01T01:03:23.971Z,9.67
2019-06-01T01:05:32.194Z,9.40
2019-06-01T01:07:38.959Z,9.30
2019-06-01T01:09:46.855Z,10.10
2019-06-01T01:11:55.373Z,10.17
2019-06-01T01:14:02.175Z,9.57
2019-06-01T01:16:09.114Z,10.43
2019-06-01T01:18:15.643Z,10.10
2019-06-01T01:20:22.649Z,9.67
2019-06-01T01:22:30.885Z,10.00
2019-06-01T01:24:39.068Z,10.40
2019-06-01T01:26:46.418Z,9.00
2019-06-01T01:28:53.335Z,10.13
2019-06-01T01:31:12.884Z,9.53
2019-06-01T01:33:10.279Z,11.80
2019-06-01T01:35:17.129Z,10.27
2019-06-01T01:37:25.854Z,10.27
2019-06-01T01:39:32.496Z,9.33
2019-06-01T01:41:40.928Z,10.83
2019-06-01T01:43:48.493Z,9.77
2019-06-01T01:45:55.061Z,9.27
2019-06-01T01:48:01.739Z,9.73
2019-06-01T01:50:09.650Z,10.77
2019-06-01T01:52:16.201Z,9.17
2019-06-01T01:54:23.285Z,9.03
2019-06-01T01:56:29.731Z,8.83
2019-06-01T01:58:36.231Z,10.13
2019-06-01T02:00:48.220Z,9.33
2019-06-01T02:02:55.842Z,10.63
2019-06-01T02:05:02.569Z,10.60
2019-06-01T02:07:09.475Z,11.30
2019-06-01T02:09:17.476Z,10.57
2019-06-01T02:11:24.237Z,9.80
2019-06-01T02:13:31.633Z,10.87
2019-06-01T02:15:41.383Z,10.37
2019-06-01T02:17:49.626Z,10.70
2019-06-01T02:19:56.126Z,10.17
2019-06-01T02:22:03.680Z,10.20
2019-06-01T02:24:11.587Z,10.20
2019-06-01T02:26:18.414Z,10.17
2019-06-01T02:28:26.143Z,10.83
2019-06-01T02:30:32.867Z,11.17
2019-06-01T02:32:41.017Z,11.07
2019-06-01T02:34:48.936Z,9.87
2019-06-01T02:36:56.511Z,10.83
2019-06-01T02:39:05.589Z,11.73
2019-06-01T02:41:12.904Z,11.00
2019-06-01T02:43:21.783Z,12.37
2019-06-01T02:45:30.445Z,11.87
2019-06-01T02:47:38.616Z,12.00
2019-06-01T02:49:45.412Z,11.03
2019-06-01T02:51:52.061Z,11.20
2019-06-01T02:53:59.602Z,10.07
2019-06-01T02:56:06.330Z,10.43
2019-06-01T02:58:14.446Z,9.80
2019-06-01T03:00:48.173Z,10.67
2019-06-01T03:02:56.591Z,10.40
2019-06-01T03:05:05.503Z,8.87
2019-06-01T03:07:15.110Z,10.17
2019-06-01T03:09:26.062Z,9.63
2019-06-01T03:11:41.680Z,9.40
2019-06-01T03:13:52.530Z,9.63
2019-06-01T03:16:03.711Z,10.10
2019-06-01T03:18:15.802Z,10.57
2019-06-01T03:20:23.801Z,10.07
2019-06-01T03:22:32.908Z,8.63
2019-06-01T03:24:40.052Z,9.70
2019-06-01T03:26:48.440Z,9.27
2019-06-01T03:28:55.140Z,9.20
2019-06-01T03:31:04.015Z,8.77
2019-06-01T03:33:11.381Z,9.07
2019-06-01T03:35:18.151Z,8.93
2019-06-01T03:37:24.954Z,9.90
2019-06-01T03:39:33.437Z,9.23
2019-06-01T03:41:41.812Z,11.37
2019-06-01T03:43:48.423Z,9.90
2019-06-01T03:45:56.544Z,11.53
2019-06-01T03:48:03.233Z,12.73
2019-06-01T03:50:11.295Z,12.10
2019-06-01T03:52:17.913Z,12.03
2019-06-01T03:54:24.429Z,11.17
2019-06-01T03:56:31.115Z,11.70
2019-06-01T03:58:38.846Z,10.83
2019-06-01T04:00:46.458Z,10.83
2019-06-01T04:02:52.853Z,10.17
2019-06-01T04:04:59.600Z,10.10
2019-06-01T04:07:06.476Z,10.17
2019-06-01T04:09:13.579Z,9.97
2019-06-01T04:11:22.222Z,10.77
2019-06-01T04:13:29.272Z,9.47
2019-06-01T04:15:37.318Z,10.03
2019-06-01T04:17:46.300Z,9.90
2019-06-01T04:19:53.344Z,9.50
2019-06-01T04:22:01.899Z,9.27
2019-06-01T04:24:10.109Z,7.77
2019-06-01T04:26:16.954Z,7.73
2019-06-01T04:28:23.539Z,8.33
2019-06-01T04:30:30.537Z,8.53
2019-06-01T04:32:49.508Z,9.27
2019-06-01T04:34:50.983Z,9.33
2019-06-01T04:36:57.617Z,8.97
2019-06-01T04:39:07.248Z,10.17
2019-06-01T04:41:14.188Z,9.57
2019-06-01T04:43:23.459Z,8.77
2019-06-01T04:45:30.267Z,8.13
2019-06-01T04:47:38.719Z,8.70
2019-06-01T04:49:45.755Z,9.10
2019-06-01T04:51:52.340Z,8.07
2019-06-01T04:54:00.533Z,8.73
2019-06-01T04:56:07.175Z,9.00
2019-06-01T04:58:14.845Z,9.57
2019-06-01T05:00:27.734Z,9.90
2019-06-01T05:02:31.763Z,9.37
2019-06-01T05:04:38.834Z,9.93
2019-06-01T05:06:45.633Z,9.97
2019-06-01T05:08:52.319Z,9.67
2019-06-01T05:11:05.056Z,10.00
2019-06-01T05:13:11.480Z,12.60
2019-06-01T05:15:19.840Z,10.93
2019-06-01T05:17:29.615Z,10.43
2019-06-01T05:19:36.226Z,11.20
2019-06-01T05:21:42.994Z,9.43
2019-06-01T05:23:49.953Z,10.93
2019-06-01T05:25:58.536Z,10.73
2019-06-01T05:28:07.059Z,10.60
2019-06-01T05:30:15.688Z,10.90
2019-06-01T05:32:22.623Z,10.60
2019-06-01T05:34:30.780Z,9.87
2019-06-01T05:36:37.664Z,12.00
2019-06-01T05:38:44.173Z,9.47
2019-06-01T05:40:51.828Z,8.80
2019-06-01T05:42:58.276Z,8.80
2019-06-01T05:45:08.975Z,9.40
2019-06-01T05:47:16.299Z,9.17
2019-06-01T05:49:23.493Z,8.50
2019-06-01T05:51:30.246Z,10.47
2019-06-01T05:53:37.377Z,8.43
2019-06-01T05:55:44.073Z,7.90
2019-06-01T05:57:50.491Z,6.90
2019-06-01T05:59:57.295Z,7.97
2019-06-01T06:02:05.141Z,5.47
2019-06-01T06:04:15.305Z,6.40
2019-06-01T06:06:22.147Z,9.87
2019-06-01T06:08:29.288Z,7.27
2019-06-01T06:10:35.958Z,6.83
2019-06-01T06:12:43.835Z,8.77
2019-06-01T06:14:51.195Z,9.27
2019-06-01T06:16:57.642Z,7.77
2019-06-01T06:19:05.232Z,8.40
2019-06-01T06:21:11.980Z,6.67
2019-06-01T06:23:18.911Z,6.90
2019-06-01T06:25:28.398Z,6.50
2019-06-01T06:27:33.803Z,7.53
2019-06-01T06:29:40.778Z,8.07
2019-06-01T06:31:47.637Z,7.77
2019-06-01T06:33:57.028Z,8.53
2019-06-01T06:36:03.474Z,7.73
2019-06-01T06:38:09.830Z,8.13
2019-06-01T06:40:17.997Z,6.47
2019-06-01T06:42:24.791Z,6.33
2019-06-01T06:44:31.674Z,7.33
2019-06-01T06:46:40.120Z,7.10
2019-06-01T06:48:48.040Z,6.60
2019-06-01T06:50:54.759Z,6.50
2019-06-01T06:53:06.509Z,6.20
2019-06-01T06:55:13.381Z,6.57
2019-06-01T06:57:20.190Z,6.83
2019-06-01T06:59:26.873Z,6.13
2019-06-01T07:01:34.821Z,5.97
2019-06-01T07:03:42.239Z,6.00
2019-06-01T07:05:50.036Z,4.97
2019-06-01T07:07:57.836Z,5.53
2019-06-01T07:10:04.455Z,4.83
2019-06-01T07:12:12.134Z,5.10
2019-06-01T07:14:19.291Z,8.00
2019-06-01T07:16:28.868Z,4.60
2019-06-01T07:18:35.419Z,5.23
2019-06-01T07:20:42.203Z,5.00
2019-06-01T07:22:49.028Z,4.60
2019-06-01T07:24:58.158Z,5.00
2019-06-01T07:27:05.893Z,4.60
2019-06-01T07:29:13.007Z,4.70
2019-06-01T07:31:22.068Z,4.47
2019-06-01T07:33:30.676Z,4.87
2019-06-01T07:35:37.505Z,4.60
2019-06-01T07:37:45.521Z,4.47
2019-06-01T07:39:56.595Z,3.87
2019-06-01T07:42:03.805Z,3.67
2019-06-01T07:44:10.576Z,4.60
2019-06-01T07:46:17.267Z,4.20
2019-06-01T07:48:24.994Z,4.93
2019-06-01T07:50:32.209Z,4.63
2019-06-01T07:52:39.089Z,4.87
2019-06-01T07:54:45.539Z,4.23
2019-06-01T07:56:54.058Z,4.50
2019-06-01T07:59:01.856Z,4.50
2019-06-01T08:01:10.006Z,4.53
2019-06-01T08:03:16.840Z,5.53
2019-06-01T08:05:24.957Z,4.63
2019-06-01T08:07:31.845Z,4.80
2019-06-01T08:09:39.326Z,4.93
2019-06-01T08:11:46.222Z,4.67
2019-06-01T08:13:52.865Z,5.37
2019-06-01T08:15:59.960Z,5.50
2019-06-01T08:18:06.831Z,5.17
2019-06-01T08:20:13.535Z,4.90
2019-06-01T08:22:23.775Z,5.27
2019-06-01T08:24:30.687Z,6.00
2019-06-01T08:26:37.526Z,6.67
2019-06-01T08:28:45.853Z,6.53
2019-06-01T08:30:52.347Z,6.40
2019-06-01T08:32:59.032Z,5.70
2019-06-01T08:35:09.319Z,5.77
2019-06-01T08:37:16.477Z,5.30
2019-06-01T08:39:23.499Z,6.97
2019-06-01T08:41:31.330Z,7.47
2019-06-01T08:43:38.390Z,7.60
2019-06-01T08:45:44.746Z,7.17
2019-06-01T08:47:51.264Z,6.50
2019-06-01T08:50:01.371Z,7.50
2019-06-01T08:52:08.101Z,6.83
2019-06-01T08:54:14.713Z,6.50
2019-06-01T08:56:24.143Z,7.67
2019-06-01T08:58:32.512Z,7.50
2019-06-01T09:00:40.161Z,7.23
2019-06-01T09:02:46.659Z,7.50
2019-06-01T09:04:53.686Z,7.40
2019-06-01T09:07:00.439Z,7.80
2019-06-01T09:09:11.857Z,7.43
2019-06-01T09:11:18.374Z,7.50
2019-06-01T09:13:25.152Z,7.72
2019-06-01T09:15:33.648Z,7.45
2019-06-01T09:17:40.912Z,7.83
2019-06-01T09:19:47.944Z,7.40
2019-06-01T09:21:54.981Z,6.58
2019-06-01T09:24:13.135Z,9.17
2019-06-01T09:26:19.760Z,8.55
2019-06-01T09:28:27.828Z,7.75
2019-06-01T09:30:35.911Z,10.20
2019-06-01T09:32:42.997Z,8.90
2019-06-01T09:34:49.969Z,7.67
2019-06-01T09:36:58.645Z,8.75
2019-06-01T09:39:07.505Z,7.60
2019-06-01T09:41:14.270Z,7.42
2019-06-01T09:43:22.671Z,7.60
2019-06-01T09:45:29.919Z,6.83
2019-06-01T09:47:37.842Z,10.15
2019-06-01T09:49:44.707Z,8.50
2019-06-01T09:51:51.513Z,8.63
2019-06-01T09:53:58.098Z,7.00
2019-06-01T09:56:05.205Z,6.67
2019-06-01T09:58:13.765Z,6.70
2019-06-01T10:00:24.084Z,7.60
2019-06-01T10:02:31.976Z,7.80
2019-06-01T10:04:39.861Z,7.30
2019-06-01T10:06:46.649Z,7.43
2019-06-01T10:08:53.663Z,7.22
2019-06-01T10:11:19.678Z,7.28
2019-06-01T10:13:26.527Z,7.03
2019-06-01T10:15:34.342Z,7.83
2019-06-01T10:17:41.080Z,7.13
2019-06-01T10:19:47.888Z,5.70
2019-06-01T10:21:54.988Z,7.22
2019-06-01T10:24:01.765Z,6.13
2019-06-01T10:26:08.917Z,6.90
2019-06-01T10:28:15.724Z,6.03
2019-06-01T10:30:22.785Z,5.97
2019-06-01T10:32:29.311Z,6.75
2019-06-01T10:34:35.881Z,5.83
2019-06-01T10:36:44.329Z,8.05
2019-06-01T10:38:50.986Z,7.75
2019-06-01T10:40:58.193Z,5.85
2019-06-01T10:43:05.073Z,6.50
2019-06-01T10:45:12.065Z,6.58
2019-06-01T10:47:18.757Z,6.62
2019-06-01T10:49:25.584Z,5.62
2019-06-01T10:51:32.427Z,6.72
2019-06-01T10:53:41.851Z,6.57
2019-06-01T10:55:49.579Z,6.45
2019-06-01T10:57:56.243Z,6.00
2019-06-01T11:00:05.682Z,5.00
2019-06-01T11:02:12.396Z,4.83
2019-06-01T11:04:19.348Z,5.12
2019-06-01T11:06:36.695Z,4.83
2019-06-01T11:08:35.492Z,4.80
2019-06-01T11:10:46.953Z,4.50
2019-06-01T11:12:57.272Z,4.77
2019-06-01T11:15:07.677Z,5.73
2019-06-01T11:17:14.444Z,5.22
2019-06-01T11:19:22.270Z,5.40
2019-06-01T11:21:29.147Z,4.12
2019-06-01T11:23:37.587Z,4.87
2019-06-01T11:25:44.656Z,5.60
2019-06-01T11:27:51.752Z,4.77
2019-06-01T11:29:58.306Z,3.83
2019-06-01T11:32:05.353Z,4.78
2019-06-01T11:34:13.487Z,4.85
2019-06-01T11:36:21.627Z,4.45
2019-06-01T11:38:28.180Z,4.15
2019-06-01T11:40:34.620Z,4.83
2019-06-01T11:42:43.068Z,5.45
2019-06-01T11:44:51.666Z,4.25
2019-06-01T11:46:58.427Z,5.20
2019-06-01T11:49:05.422Z,4.00
2019-06-01T11:51:11.762Z,4.05
2019-06-01T11:53:18.707Z,3.70
2019-06-01T11:55:25.476Z,4.03
2019-06-01T11:57:32.217Z,3.98
2019-06-01T11:59:39.421Z,3.47
2019-06-01T12:01:46.556Z,3.47
2019-06-01T12:03:53.324Z,3.90
2019-06-01T12:06:02.457Z,4.33
2019-06-01T12:08:10.259Z,3.65
2019-06-01T12:10:17.710Z,4.05
2019-06-01T12:12:24.604Z,3.75
2019-06-01T12:14:31.147Z,3.90
2019-06-01T12:16:40.391Z,3.77
2019-06-01T12:18:47.547Z,4.05
2019-06-01T12:20:56.005Z,4.92
2019-06-01T12:23:03.286Z,4.55
2019-06-01T12:25:10.413Z,4.45
2019-06-01T12:27:17.213Z,4.33
2019-06-01T12:29:24.039Z,4.83
2019-06-01T12:31:31.041Z,4.80
2019-06-01T12:33:37.938Z,4.08
2019-06-01T12:35:46.173Z,4.17
2019-06-01T12:38:05.491Z,4.40
2019-06-01T12:40:01.076Z,4.85
2019-06-01T12:42:08.237Z,4.72
2019-06-01T12:44:15.945Z,4.80
2019-06-01T12:46:23.532Z,6.10
2019-06-01T12:48:30.059Z,5.25
2019-06-01T12:50:37.884Z,5.83
2019-06-01T12:52:44.732Z,5.35
2019-06-01T12:54:51.476Z,5.10
2019-06-01T12:56:58.088Z,5.22
2019-06-01T12:59:05.646Z,4.97
2019-06-01T13:01:12.361Z,6.35
2019-06-01T13:03:18.854Z,5.42
2019-06-01T13:05:25.837Z,7.00
2019-06-01T13:07:32.622Z,5.22
2019-06-01T13:09:39.437Z,5.25
2019-06-01T13:11:47.260Z,5.62
2019-06-01T13:13:55.506Z,6.75
2019-06-01T13:16:03.777Z,5.65
2019-06-01T13:18:10.960Z,5.40
2019-06-01T13:20:17.659Z,5.72
2019-06-01T13:22:24.137Z,5.33
2019-06-01T13:24:31.433Z,5.53
2019-06-01T13:26:38.041Z,6.70
2019-06-01T13:28:46.085Z,6.08
2019-06-01T13:30:53.457Z,10.13
2019-06-01T13:32:59.853Z,5.65
2019-06-01T13:35:10.291Z,5.92
2019-06-01T13:37:17.240Z,5.35
2019-06-01T13:39:24.036Z,6.30
2019-06-01T13:41:31.117Z,5.60
2019-06-01T13:43:38.258Z,6.00
2019-06-01T13:45:45.270Z,6.50
2019-06-01T13:47:52.066Z,8.20
2019-06-01T13:49:58.920Z,6.40
2019-06-01T13:52:07.066Z,5.75
2019-06-01T13:54:14.067Z,5.28
2019-06-01T13:56:20.974Z,5.47
2019-06-01T13:58:28.248Z,5.35
2019-06-01T14:00:35.158Z,5.30
2019-06-01T14:02:41.964Z,5.08
2019-06-01T14:04:49.815Z,5.47
2019-06-01T14:06:56.979Z,5.35
2019-06-01T14:09:03.895Z,5.10
2019-06-01T14:11:12.696Z,5.08
2019-06-01T14:13:19.574Z,4.97
2019-06-01T14:15:27.909Z,20.00
2019-06-01T14:17:36.351Z,6.90
2019-06-01T14:19:42.992Z,5.45
2019-06-01T14:21:50.431Z,5.83
2019-06-01T14:23:59.023Z,5.78
2019-06-01T14:26:06.109Z,5.62
2019-06-01T14:28:15.752Z,4.67
2019-06-01T14:30:24.169Z,8.63
2019-06-01T14:32:32.203Z,5.08
2019-06-01T14:34:40.643Z,6.40
2019-06-01T14:36:49.070Z,4.97
2019-06-01T14:38:58.281Z,4.97
2019-06-01T14:41:04.854Z,4.62
2019-06-01T14:43:11.614Z,4.85
2019-06-01T14:45:18.483Z,4.78
2019-06-01T14:47:26.824Z,5.15
2019-06-01T14:49:33.674Z,8.28
2019-06-01T14:51:40.912Z,4.83
2019-06-01T14:53:47.889Z,5.10
2019-06-01T14:55:56.240Z,4.60
2019-06-01T14:58:03.197Z,4.75
2019-06-01T15:00:11.779Z,4.03
2019-06-01T15:02:18.537Z,4.12
2019-06-01T15:04:25.177Z,3.75
2019-06-01T15:06:31.634Z,4.12
2019-06-01T15:08:38.526Z,4.42
2019-06-01T15:10:45.295Z,5.12
2019-06-01T15:12:56.796Z,4.35
2019-06-01T15:15:03.028Z,4.42
2019-06-01T15:17:10.115Z,4.03
2019-06-01T15:19:16.791Z,5.05
2019-06-01T15:21:23.575Z,5.97
2019-06-01T15:23:30.286Z,4.75
2019-06-01T15:25:36.924Z,4.70
2019-06-01T15:27:43.445Z,3.95
2019-06-01T15:29:50.729Z,7.55
2019-06-01T15:31:58.021Z,4.12
2019-06-01T15:34:04.915Z,3.60
2019-06-01T15:36:11.646Z,3.77
2019-06-01T15:38:21.479Z,5.00
2019-06-01T15:40:30.986Z,3.72
2019-06-01T15:42:37.733Z,3.22
2019-06-01T15:44:44.545Z,3.58
2019-06-01T15:46:51.538Z,3.40
2019-06-01T15:49:00.041Z,3.75
2019-06-01T15:51:07.453Z,3.60
2019-06-01T15:53:14.334Z,4.62
2019-06-01T15:55:20.865Z,3.58
2019-06-01T15:57:27.777Z,3.30
2019-06-01T15:59:34.565Z,3.17
2019-06-01T16:01:42.165Z,4.03
2019-06-01T16:03:49.654Z,3.55
2019-06-01T16:05:57.149Z,3.47
2019-06-01T16:08:24.556Z,4.10
2019-06-01T16:10:31.535Z,3.40
2019-06-01T16:12:38.374Z,3.22
2019-06-01T16:14:45.330Z,3.30
2019-06-01T16:16:54.006Z,3.50
2019-06-01T16:19:04.853Z,3.75
2019-06-01T16:21:10.496Z,3.35
2019-06-01T16:23:17.015Z,3.40
2019-06-01T16:25:24.820Z,3.20
2019-06-01T16:27:31.300Z,3.52
2019-06-01T16:29:38.140Z,3.72
2019-06-01T16:31:44.650Z,3.02
2019-06-01T16:33:51.785Z,3.45
2019-06-01T16:35:58.830Z,3.40
2019-06-01T16:38:05.927Z,3.77
2019-06-01T16:40:14.337Z,3.58
2019-06-01T16:42:21.498Z,3.22
2019-06-01T16:44:29.372Z,3.22
2019-06-01T16:46:36.255Z,3.05
2019-06-01T16:48:43.363Z,7.10
2019-06-01T16:50:50.704Z,3.50
2019-06-01T16:52:57.939Z,3.30
2019-06-01T16:55:07.140Z,2.80
2019-06-01T16:57:14.099Z,4.05
2019-06-01T16:59:20.936Z,3.62
2019-06-01T17:01:27.646Z,3.33
2019-06-01T17:03:34.338Z,3.42
2019-06-01T17:05:40.930Z,2.90
2019-06-01T17:07:47.452Z,3.05
2019-06-01T17:09:56.632Z,3.20
2019-06-01T17:12:03.516Z,3.50
2019-06-01T17:14:10.381Z,3.40
2019-06-01T17:16:17.099Z,4.10
2019-06-01T17:18:23.885Z,3.42
2019-06-01T17:20:44.903Z,4.33
2019-06-01T17:22:51.875Z,3.85
2019-06-01T17:25:00.026Z,3.70
2019-06-01T17:27:08.070Z,4.37
2019-06-01T17:29:15.403Z,6.55
2019-06-01T17:31:22.365Z,4.45
2019-06-01T17:33:29.191Z,5.30
2019-06-01T17:35:36.581Z,5.72
2019-06-01T17:37:44.164Z,9.43
2019-06-01T17:39:50.711Z,29.67
2019-06-01T17:41:57.754Z,17.17
2019-06-01T17:44:04.955Z,6.67
2019-06-01T17:46:12.241Z,4.87
2019-06-01T17:48:26.615Z,3.98
2019-06-01T17:50:29.657Z,4.05
2019-06-01T17:52:36.776Z,3.60
2019-06-01T17:54:43.469Z,7.10
2019-06-01T17:56:50.358Z,5.55
2019-06-01T17:58:57.604Z,5.00
2019-06-01T18:01:06.336Z,5.00
2019-06-01T18:03:13.620Z,3.98
2019-06-01T18:05:21.919Z,3.60
2019-06-01T18:07:29.710Z,4.45
2019-06-01T18:09:37.335Z,4.53
2019-06-01T18:11:45.629Z,6.22
2019-06-01T18:13:52.112Z,7.15
2019-06-01T18:15:58.966Z,7.57
2019-06-01T18:18:06.819Z,7.40
2019-06-01T18:20:16.554Z,7.83
2019-06-01T18:22:23.552Z,7.40
2019-06-01T18:24:30.483Z,6.03
2019-06-01T18:26:37.472Z,5.63
2019-06-01T18:28:44.402Z,6.05
2019-06-01T18:30:52.630Z,5.70
2019-06-01T18:33:00.432Z,5.20
2019-06-01T18:35:09.331Z,5.30
2019-06-01T18:37:16.034Z,5.07
2019-06-01T18:39:24.168Z,5.17
2019-06-01T18:41:31.196Z,5.13
2019-06-01T18:43:37.794Z,5.47
2019-06-01T18:45:48.053Z,6.33
2019-06-01T18:47:55.172Z,6.13
2019-06-01T18:50:05.947Z,5.57
2019-06-01T18:52:13.002Z,5.13
2019-06-01T18:54:19.516Z,5.20
2019-06-01T18:56:26.403Z,5.70
2019-06-01T18:58:33.219Z,5.37
2019-06-01T19:00:40.346Z,5.70
2019-06-01T19:02:47.382Z,5.23
2019-06-01T19:04:54.763Z,4.83
2019-06-01T19:07:01.528Z,5.10
2019-06-01T19:09:09.844Z,5.70
2019-06-01T19:11:30.472Z,4.93
2019-06-01T19:13:25.766Z,5.30
2019-06-01T19:15:32.432Z,5.10
2019-06-01T19:17:39.539Z,4.97
2019-06-01T19:19:47.663Z,5.27
2019-06-01T19:21:54.670Z,5.43
2019-06-01T19:24:02.645Z,5.47
2019-06-01T19:26:12.300Z,5.60
2019-06-01T19:28:19.683Z,5.10
2019-06-01T19:30:42.736Z,9.27
2019-06-01T19:32:49.372Z,8.70
2019-06-01T19:34:56.761Z,6.07
2019-06-01T19:37:05.037Z,5.33
2019-06-01T19:39:13.351Z,6.60
2019-06-01T19:41:21.891Z,5.37
2019-06-01T19:43:30.043Z,4.73
2019-06-01T19:45:37.284Z,5.00
2019-06-01T19:47:44.676Z,5.13
2019-06-01T19:49:52.939Z,5.57
2019-06-01T19:51:59.576Z,5.30
2019-06-01T19:54:08.644Z,5.07
2019-06-01T19:56:17.052Z,4.93
2019-06-01T19:58:23.943Z,4.97
2019-06-01T20:00:31.356Z,5.50
2019-06-01T20:02:38.595Z,5.53
2019-06-01T20:04:49.177Z,5.87
2019-06-01T20:06:56.284Z,5.13
2019-06-01T20:09:03.292Z,7.43
2019-06-01T20:11:11.376Z,6.40
2019-06-01T20:13:19.262Z,5.40
2019-06-01T20:15:32.395Z,6.50
2019-06-01T20:17:39.647Z,5.80
2019-06-01T20:19:46.193Z,5.73
2019-06-01T20:21:52.917Z,5.80
2019-06-01T20:24:00.185Z,5.90
2019-06-01T20:26:07.067Z,6.50
2019-06-01T20:28:15.723Z,6.60
2019-06-01T20:30:24.325Z,6.33
2019-06-01T20:32:32.915Z,6.17
2019-06-01T20:34:39.813Z,7.13
2019-06-01T20:36:46.622Z,7.00
2019-06-01T20:38:54.287Z,6.80
2019-06-01T20:41:04.272Z,7.77
2019-06-01T20:43:12.317Z,6.90
2019-06-01T20:45:23.608Z,6.80
2019-06-01T20:47:31.322Z,7.07
2019-06-01T20:49:38.902Z,7.67
2019-06-01T20:51:48.818Z,7.47
2019-06-01T20:53:56.362Z,7.47
2019-06-01T20:56:03.407Z,7.83
2019-06-01T20:58:10.217Z,8.47
2019-06-01T21:00:18.092Z,7.57
2019-06-01T21:02:25.138Z,9.23
2019-06-01T21:04:33.105Z,8.27
2019-06-01T21:06:43.245Z,8.10
2019-06-01T21:08:52.735Z,7.33
2019-06-01T21:10:59.922Z,7.57
2019-06-01T21:13:09.154Z,7.77
2019-06-01T21:15:17.664Z,8.87
2019-06-01T21:17:24.545Z,7.50
2019-06-01T21:19:32.000Z,8.37
2019-06-01T21:21:39.415Z,8.73
2019-06-01T21:23:47.771Z,8.87
2019-06-01T21:25:54.589Z,8.87
2019-06-01T21:28:01.220Z,9.10
2019-06-01T21:30:11.879Z,8.37
2019-06-01T21:32:21.363Z,8.80
2019-06-01T21:34:30.008Z,9.30
2019-06-01T21:36:41.778Z,9.50
2019-06-01T21:38:51.406Z,7.97
2019-06-01T21:40:59.832Z,9.43
2019-06-01T21:43:23.038Z,9.13
2019-06-01T21:45:19.520Z,8.53
2019-06-01T21:47:26.262Z,8.83
2019-06-01T21:49:33.021Z,8.33
2019-06-01T21:51:42.053Z,7.97
2019-06-01T21:53:50.867Z,8.40
2019-06-01T21:55:57.550Z,8.93
2019-06-01T21:58:06.970Z,8.37
2019-06-01T22:00:32.322Z,9.33
2019-06-01T22:02:43.106Z,9.00
2019-06-01T22:04:51.429Z,8.53
2019-06-01T22:06:58.152Z,8.07
2019-06-01T22:09:06.518Z,8.77
2019-06-01T22:11:15.667Z,9.00
2019-06-01T22:13:24.457Z,8.87
2019-06-01T22:15:32.539Z,8.77
2019-06-01T22:17:39.133Z,9.13
2019-06-01T22:19:47.199Z,8.83
2019-06-01T22:21:56.591Z,9.37
2019-06-01T22:24:03.448Z,9.17
2019-06-01T22:26:11.075Z,9.40
2019-06-01T22:28:18.154Z,9.83
2019-06-01T22:30:24.933Z,9.60
2019-06-01T22:32:31.938Z,10.33
2019-06-01T22:34:38.875Z,9.70
2019-06-01T22:36:45.569Z,10.13
2019-06-01T22:38:52.276Z,10.13
2019-06-01T22:41:00.071Z,9.60
2019-06-01T22:43:08.400Z,10.47
2019-06-01T22:45:15.710Z,10.50
2019-06-01T22:47:24.534Z,10.07
2019-06-01T22:49:33.032Z,10.90
2019-06-01T22:51:40.321Z,11.20
2019-06-01T22:53:46.776Z,10.60
2019-06-01T22:55:53.554Z,9.93
2019-06-01T22:58:00.232Z,10.60
2019-06-01T23:00:08.485Z,10.67
2019-06-01T23:02:15.144Z,11.83
2019-06-01T23:04:24.947Z,10.87
2019-06-01T23:06:31.872Z,11.97
2019-06-01T23:08:38.574Z,11.03
2019-06-01T23:10:45.206Z,10.80
2019-06-01T23:12:52.035Z,10.90
2019-06-01T23:14:58.683Z,10.57
2019-06-01T23:17:07.988Z,11.83
2019-06-01T23:19:18.260Z,11.90
2019-06-01T23:21:27.782Z,11.20
2019-06-01T23:23:36.660Z,11.03
2019-06-01T23:25:43.338Z,10.50
2019-06-01T23:27:51.707Z,9.93
2019-06-01T23:30:03.393Z,10.20
2019-06-01T23:32:10.725Z,9.87
2019-06-01T23:34:19.293Z,10.43
2019-06-01T23:36:28.873Z,10.80
2019-06-01T23:38:37.089Z,10.90
2019-06-01T23:40:43.887Z,11.00
2019-06-01T23:42:50.510Z,10.87
2019-06-01T23:44:57.378Z,11.40
2019-06-01T23:47:04.050Z,11.43
2019-06-01T23:49:10.742Z,12.40
2019-06-01T23:51:19.254Z,11.83
2019-06-01T23:53:26.094Z,11.60
2019-06-01T23:55:34.249Z,10.13
2019-06-01T23:57:41.229Z,12.20
2019-06-01T23:59:49.959Z,12.70
